sensor_id;sensor_type;location;lat;lon;timestamp;pressure;altitude;pressure_sealevel;temperature;humidity
46778;BME280;32536;47.128;8.746;2023-02-18T00:01:44;92774.84;;;10.33;45.21
46778;BME280;32536;47.128;8.746;2023-02-18T00:04:11;92778.66;;;10.28;44.76
46778;BME280;32536;47.128;8.746;2023-02-18T00:06:38;92781.31;;;10.24;45.10
46778;BME280;32536;47.128;8.746;2023-02-18T00:09:04;92786.25;;;10.22;44.75
46778;BME280;32536;47.128;8.746;2023-02-18T00:11:33;92790.44;;;10.20;45.02
46778;BME280;32536;47.128;8.746;2023-02-18T00:14:04;92788.13;;;10.15;45.39
46778;BME280;32536;47.128;8.746;2023-02-18T00:16:33;92787.31;;;10.10;45.13
46778;BME280;32536;47.128;8.746;2023-02-18T00:19:01;92788.47;;;10.09;45.04
46778;BME280;32536;47.128;8.746;2023-02-18T00:21:29;92790.78;;;10.11;45.17
46778;BME280;32536;47.128;8.746;2023-02-18T00:23:58;92790.41;;;10.13;44.95
46778;BME280;32536;47.128;8.746;2023-02-18T00:26:25;92781.63;;;10.12;45.33
46778;BME280;32536;47.128;8.746;2023-02-18T00:28:52;92785.44;;;10.11;44.92
46778;BME280;32536;47.128;8.746;2023-02-18T00:31:22;92779.66;;;10.09;44.92
46778;BME280;32536;47.128;8.746;2023-02-18T00:33:49;92775.84;;;10.10;45.08
46778;BME280;32536;47.128;8.746;2023-02-18T00:36:18;92777.00;;;10.09;45.29
46778;BME280;32536;47.128;8.746;2023-02-18T00:38:47;92771.22;;;10.07;44.99
46778;BME280;32536;47.128;8.746;2023-02-18T00:41:19;92775.44;;;10.08;44.92
46778;BME280;32536;47.128;8.746;2023-02-18T00:43:47;92768.97;;;10.09;45.08
46778;BME280;32536;47.128;8.746;2023-02-18T00:46:14;92768.56;;;10.07;45.10
46778;BME280;32536;47.128;8.746;2023-02-18T00:48:41;92765.09;;;10.03;44.98
46778;BME280;32536;47.128;8.746;2023-02-18T00:51:08;92765.88;;;10.03;45.44
46778;BME280;32536;47.128;8.746;2023-02-18T00:53:35;92765.09;;;10.03;45.42
46778;BME280;32536;47.128;8.746;2023-02-18T00:56:04;92773.13;;;10.03;45.18
46778;BME280;32536;47.128;8.746;2023-02-18T00:58:31;92776.97;;;10.05;45.59
46778;BME280;32536;47.128;8.746;2023-02-18T01:00:59;92766.66;;;10.07;45.49
46778;BME280;32536;47.128;8.746;2023-02-18T01:03:26;92768.97;;;10.09;45.58
46778;BME280;32536;47.128;8.746;2023-02-18T01:05:53;92761.31;;;10.07;45.25
46778;BME280;32536;47.128;8.746;2023-02-18T01:08:20;92771.22;;;10.07;45.58
46778;BME280;32536;47.128;8.746;2023-02-18T01:10:49;92767.03;;;10.06;45.51
46778;BME280;32536;47.128;8.746;2023-02-18T01:13:19;92763.59;;;10.09;45.53
46778;BME280;32536;47.128;8.746;2023-02-18T01:15:46;92760.19;;;10.12;45.40
46778;BME280;32536;47.128;8.746;2023-02-18T01:18:13;92756.00;;;10.15;45.28
46778;BME280;32536;47.128;8.746;2023-02-18T01:20:42;92758.69;;;10.15;45.91
46778;BME280;32536;47.128;8.746;2023-02-18T01:23:10;92750.66;;;10.15;45.64
46778;BME280;32536;47.128;8.746;2023-02-18T01:25:38;92752.94;;;10.16;45.61
46778;BME280;32536;47.128;8.746;2023-02-18T01:28:06;92757.91;;;10.18;45.67
46778;BME280;32536;47.128;8.746;2023-02-18T01:30:34;92757.16;;;10.17;45.94
46778;BME280;32536;47.128;8.746;2023-02-18T01:33:01;92759.06;;;10.17;45.58
46778;BME280;32536;47.128;8.746;2023-02-18T01:35:28;92753.72;;;10.17;45.45
46778;BME280;32536;47.128;8.746;2023-02-18T01:37:55;92752.53;;;10.14;45.44
46778;BME280;32536;47.128;8.746;2023-02-18T01:40:24;92747.97;;;10.15;45.79
46778;BME280;32536;47.128;8.746;2023-02-18T01:42:52;92744.94;;;10.20;45.70
46778;BME280;32536;47.128;8.746;2023-02-18T01:48:16;92732.28;;;10.20;45.96
46778;BME280;32536;47.128;8.746;2023-02-18T01:50:47;92742.25;;;10.20;45.75
46778;BME280;32536;47.128;8.746;2023-02-18T01:53:21;92734.22;;;10.20;46.04
46778;BME280;32536;47.128;8.746;2023-02-18T01:55:53;92734.63;;;10.22;45.28
46778;BME280;32536;47.128;8.746;2023-02-18T01:58:21;92728.88;;;10.23;45.39
46778;BME280;32536;47.128;8.746;2023-02-18T02:00:48;92721.59;;;10.20;45.47
46778;BME280;32536;47.128;8.746;2023-02-18T02:03:15;92716.22;;;10.20;45.77
46778;BME280;32536;47.128;8.746;2023-02-18T02:05:42;92725.47;;;10.27;45.38
46778;BME280;32536;47.128;8.746;2023-02-18T02:08:09;92720.13;;;10.34;45.43
46778;BME280;32536;47.128;8.746;2023-02-18T02:11:27;92721.69;;;10.38;45.70
46778;BME280;32536;47.128;8.746;2023-02-18T02:35:23;92706.31;;;10.21;45.89
46778;BME280;32536;47.128;8.746;2023-02-18T02:38:30;92711.66;;;10.21;46.09
46778;BME280;32536;47.128;8.746;2023-02-18T02:44:00;92705.84;;;10.08;45.75
46778;BME280;32536;47.128;8.746;2023-02-18T02:46:43;92702.75;;;9.99;46.01
46778;BME280;32536;47.128;8.746;2023-02-18T02:52:11;92697.38;;;9.95;45.70
46778;BME280;32536;47.128;8.746;2023-02-18T02:54:44;92702.69;;;9.91;45.96
46778;BME280;32536;47.128;8.746;2023-02-18T02:59:43;92695.72;;;9.76;46.42
46778;BME280;32536;47.128;8.746;2023-02-18T03:05:24;92694.47;;;9.59;46.55
46778;BME280;32536;47.128;8.746;2023-02-18T03:11:14;92697.56;;;9.65;45.70
46778;BME280;32536;47.128;8.746;2023-02-18T03:16:52;92679.19;;;9.59;45.63
46778;BME280;32536;47.128;8.746;2023-02-18T03:19:48;92687.09;;;9.45;46.42
46778;BME280;32536;47.128;8.746;2023-02-18T03:22:29;92680.19;;;9.40;46.16
46778;BME280;32536;47.128;8.746;2023-02-18T03:24:58;92677.50;;;9.37;46.38
46778;BME280;32536;47.128;8.746;2023-02-18T03:27:39;92678.59;;;9.32;46.50
46778;BME280;32536;47.128;8.746;2023-02-18T03:30:18;92672.84;;;9.30;46.23
46778;BME280;32536;47.128;8.746;2023-02-18T03:32:49;92667.13;;;9.28;46.09
46778;BME280;32536;47.128;8.746;2023-02-18T03:35:21;92671.66;;;9.24;46.13
46778;BME280;32536;47.128;8.746;2023-02-18T03:37:59;92659.03;;;9.21;46.55
46778;BME280;32536;47.128;8.746;2023-02-18T03:40:45;92667.81;;;9.21;46.41
46778;BME280;32536;47.128;8.746;2023-02-18T03:43:12;92666.69;;;9.22;45.94
46778;BME280;32536;47.128;8.746;2023-02-18T03:45:39;92672.44;;;9.24;45.83
46778;BME280;32536;47.128;8.746;2023-02-18T03:48:06;92669.38;;;9.26;45.97
46778;BME280;32536;47.128;8.746;2023-02-18T03:50:33;92667.06;;;9.21;46.03
46778;BME280;32536;47.128;8.746;2023-02-18T03:53:00;92671.59;;;9.17;46.29
46778;BME280;32536;47.128;8.746;2023-02-18T03:55:26;92670.81;;;9.12;46.31
46778;BME280;32536;47.128;8.746;2023-02-18T03:57:53;92673.44;;;9.09;46.32
46778;BME280;32536;47.128;8.746;2023-02-18T04:00:20;92669.19;;;9.04;46.73
46778;BME280;32536;47.128;8.746;2023-02-18T04:02:47;92674.53;;;9.04;46.75
46778;BME280;32536;47.128;8.746;2023-02-18T04:05:14;92673.41;;;9.05;46.48
46778;BME280;32536;47.128;8.746;2023-02-18T04:07:40;92678.38;;;9.07;46.58
46778;BME280;32536;47.128;8.746;2023-02-18T04:10:07;92676.13;;;9.09;46.52
46778;BME280;32536;47.128;8.746;2023-02-18T04:12:34;92672.69;;;9.08;46.61
46778;BME280;32536;47.128;8.746;2023-02-18T04:15:02;92675.75;;;9.10;46.42
46778;BME280;32536;47.128;8.746;2023-02-18T04:17:28;92688.34;;;9.10;46.48
46778;BME280;32536;47.128;8.746;2023-02-18T04:19:55;92689.06;;;9.07;46.44
46778;BME280;32536;47.128;8.746;2023-02-18T04:22:22;92687.56;;;9.06;46.59
46778;BME280;32536;47.128;8.746;2023-02-18T04:24:49;92684.47;;;9.04;46.74
46778;BME280;32536;47.128;8.746;2023-02-18T04:27:15;92687.19;;;9.07;46.47
46778;BME280;32536;47.128;8.746;2023-02-18T04:29:42;92686.06;;;9.08;46.69
46778;BME280;32536;47.128;8.746;2023-02-18T04:32:09;92682.59;;;9.08;46.23
46778;BME280;32536;47.128;8.746;2023-02-18T04:34:35;92685.66;;;9.06;46.52
46778;BME280;32536;47.128;8.746;2023-02-18T04:37:03;92682.56;;;9.04;46.57
46778;BME280;32536;47.128;8.746;2023-02-18T04:39:29;92686.03;;;9.05;46.42
46778;BME280;32536;47.128;8.746;2023-02-18T04:41:56;92691.72;;;9.00;46.73
46778;BME280;32536;47.128;8.746;2023-02-18T04:44:23;92691.28;;;8.97;46.56
46778;BME280;32536;47.128;8.746;2023-02-18T04:46:50;92689.72;;;8.93;46.47
46778;BME280;32536;47.128;8.746;2023-02-18T04:49:16;92693.56;;;8.95;46.62
46778;BME280;32536;47.128;8.746;2023-02-18T04:52:12;92683.63;;;8.92;46.93
46778;BME280;32536;47.128;8.746;2023-02-18T04:54:39;92687.00;;;8.89;46.30
46778;BME280;32536;47.128;8.746;2023-02-18T04:57:06;92683.94;;;8.87;46.39
46778;BME280;32536;47.128;8.746;2023-02-18T04:59:32;92688.09;;;8.85;46.55
46778;BME280;32536;47.128;8.746;2023-02-18T05:01:59;92687.72;;;8.83;46.70
46778;BME280;32536;47.128;8.746;2023-02-18T05:04:26;92681.97;;;8.80;46.96
46778;BME280;32536;47.128;8.746;2023-02-18T05:06:53;92677.00;;;8.79;46.70
46778;BME280;32536;47.128;8.746;2023-02-18T05:09:20;92669.34;;;8.77;46.69
46778;BME280;32536;47.128;8.746;2023-02-18T05:11:47;92667.81;;;8.76;47.17
46778;BME280;32536;47.128;8.746;2023-02-18T05:14:14;92669.34;;;8.77;47.01
46778;BME280;32536;47.128;8.746;2023-02-18T05:16:41;92663.31;;;8.84;46.91
46778;BME280;32536;47.128;8.746;2023-02-18T05:19:11;92655.34;;;8.91;46.69
46778;BME280;32536;47.128;8.746;2023-02-18T05:21:39;92653.50;;;8.99;46.35
46778;BME280;32536;47.128;8.746;2023-02-18T05:24:06;92655.84;;;9.04;46.67
46778;BME280;32536;47.128;8.746;2023-02-18T05:26:33;92655.50;;;9.09;46.40
46778;BME280;32536;47.128;8.746;2023-02-18T05:29:00;92660.06;;;9.09;46.13
46778;BME280;32536;47.128;8.746;2023-02-18T05:31:28;92655.44;;;9.02;46.29
46778;BME280;32536;47.128;8.746;2023-02-18T05:33:55;92657.34;;;9.02;46.58
46778;BME280;32536;47.128;8.746;2023-02-18T05:36:22;92650.44;;;9.01;46.31
46778;BME280;32536;47.128;8.746;2023-02-18T05:38:48;92643.53;;;8.92;46.41
46778;BME280;32536;47.128;8.746;2023-02-18T05:41:15;92645.72;;;8.83;46.66
46778;BME280;32536;47.128;8.746;2023-02-18T05:43:42;92647.28;;;8.84;46.59
46778;BME280;32536;47.128;8.746;2023-02-18T05:46:27;92644.59;;;8.84;46.54
46778;BME280;32536;47.128;8.746;2023-02-18T05:48:54;92653.00;;;8.83;46.47
46778;BME280;32536;47.128;8.746;2023-02-18T05:51:21;92652.13;;;8.75;46.61
46778;BME280;32536;47.128;8.746;2023-02-18T05:53:48;92649.34;;;8.64;46.73
46778;BME280;32536;47.128;8.746;2023-02-18T05:56:14;92650.06;;;8.57;47.03
46778;BME280;32536;47.128;8.746;2023-02-18T05:58:41;92655.78;;;8.56;46.82
46778;BME280;32536;47.128;8.746;2023-02-18T06:01:08;92657.66;;;8.55;46.59
46778;BME280;32536;47.128;8.746;2023-02-18T06:03:35;92658.47;;;8.56;47.03
46778;BME280;32536;47.128;8.746;2023-02-18T06:06:01;92665.28;;;8.53;47.17
46778;BME280;32536;47.128;8.746;2023-02-18T06:08:28;92667.22;;;8.56;47.25
46778;BME280;32536;47.128;8.746;2023-02-18T06:10:55;92663.09;;;8.62;46.74
46778;BME280;32536;47.128;8.746;2023-02-18T06:13:22;92664.97;;;8.58;47.09
46778;BME280;32536;47.128;8.746;2023-02-18T06:15:50;92663.75;;;8.52;46.92
46778;BME280;32536;47.128;8.746;2023-02-18T06:18:18;92657.25;;;8.49;46.84
46778;BME280;32536;47.128;8.746;2023-02-18T06:20:46;92662.97;;;8.52;46.92
46778;BME280;32536;47.128;8.746;2023-02-18T06:23:13;92659.56;;;8.51;47.47
46778;BME280;32536;47.128;8.746;2023-02-18T06:25:41;92656.88;;;8.51;47.66
46778;BME280;32536;47.128;8.746;2023-02-18T06:28:08;92652.28;;;8.52;47.06
46778;BME280;32536;47.128;8.746;2023-02-18T06:30:35;92647.31;;;8.50;47.08
46778;BME280;32536;47.128;8.746;2023-02-18T06:33:02;92646.19;;;8.51;46.37
46778;BME280;32536;47.128;8.746;2023-02-18T06:35:29;92649.25;;;8.49;46.61
46778;BME280;32536;47.128;8.746;2023-02-18T06:37:56;92647.63;;;8.45;46.62
46778;BME280;32536;47.128;8.746;2023-02-18T06:40:22;92649.09;;;8.39;46.53
46778;BME280;32536;47.128;8.746;2023-02-18T06:42:49;92653.66;;;8.38;47.02
46778;BME280;32536;47.128;8.746;2023-02-18T06:45:16;92658.59;;;8.36;46.88
46778;BME280;32536;47.128;8.746;2023-02-18T06:47:43;92653.53;;;8.27;46.70
46778;BME280;32536;47.128;8.746;2023-02-18T06:50:10;92661.50;;;8.24;47.67
46778;BME280;32536;47.128;8.746;2023-02-18T06:52:36;92664.56;;;8.26;46.95
46778;BME280;32536;47.128;8.746;2023-02-18T06:55:04;92664.56;;;8.26;47.03
46778;BME280;32536;47.128;8.746;2023-02-18T06:57:31;92656.16;;;8.24;46.87
46778;BME280;32536;47.128;8.746;2023-02-18T06:59:58;92657.66;;;8.21;46.83
46778;BME280;32536;47.128;8.746;2023-02-18T07:02:26;92661.81;;;8.18;46.70
46778;BME280;32536;47.128;8.746;2023-02-18T07:04:53;92649.25;;;8.19;47.26
46778;BME280;32536;47.128;8.746;2023-02-18T07:07:20;92650.44;;;8.22;46.72
46778;BME280;32536;47.128;8.746;2023-02-18T07:09:47;92653.13;;;8.25;46.56
46778;BME280;32536;47.128;8.746;2023-02-18T07:12:13;92655.44;;;8.27;46.18
46778;BME280;32536;47.128;8.746;2023-02-18T07:14:40;92650.47;;;8.25;46.41
46778;BME280;32536;47.128;8.746;2023-02-18T07:17:07;92649.59;;;8.17;46.83
46778;BME280;32536;47.128;8.746;2023-02-18T07:19:34;92652.59;;;8.12;46.68
46778;BME280;32536;47.128;8.746;2023-02-18T07:22:00;92647.22;;;8.09;47.11
46778;BME280;32536;47.128;8.746;2023-02-18T07:24:27;92654.09;;;8.10;46.91
46778;BME280;32536;47.128;8.746;2023-02-18T07:26:54;92656.81;;;8.13;47.98
46778;BME280;32536;47.128;8.746;2023-02-18T07:29:20;92652.72;;;8.23;47.94
46778;BME280;32536;47.128;8.746;2023-02-18T07:31:47;92658.28;;;8.41;47.93
46778;BME280;32536;47.128;8.746;2023-02-18T07:34:14;92655.03;;;8.59;48.31
46778;BME280;32536;47.128;8.746;2023-02-18T07:36:41;92654.88;;;8.82;47.92
46778;BME280;32536;47.128;8.746;2023-02-18T07:39:07;92654.00;;;9.12;47.76
46778;BME280;32536;47.128;8.746;2023-02-18T07:41:34;92665.72;;;9.45;47.71
46778;BME280;32536;47.128;8.746;2023-02-18T07:44:01;92657.06;;;9.70;46.64
46778;BME280;32536;47.128;8.746;2023-02-18T07:46:28;92655.25;;;9.85;46.36
46778;BME280;32536;47.128;8.746;2023-02-18T07:48:56;92654.09;;;9.82;46.29
46778;BME280;32536;47.128;8.746;2023-02-18T07:51:23;92646.81;;;9.79;45.91
46778;BME280;32536;47.128;8.746;2023-02-18T07:53:50;92649.03;;;9.70;45.74
46778;BME280;32536;47.128;8.746;2023-02-18T07:56:16;92645.91;;;9.60;46.25
46778;BME280;32536;47.128;8.746;2023-02-18T07:58:43;92647.38;;;9.51;46.34
46778;BME280;32536;47.128;8.746;2023-02-18T08:01:13;92648.13;;;9.44;46.33
46778;BME280;32536;47.128;8.746;2023-02-18T08:03:40;92644.66;;;9.36;46.21
46778;BME280;32536;47.128;8.746;2023-02-18T08:06:12;92644.16;;;9.23;46.44
46778;BME280;32536;47.128;8.746;2023-02-18T08:08:47;92638.34;;;9.14;46.46
46778;BME280;32536;47.128;8.746;2023-02-18T08:11:14;92632.19;;;9.06;46.47
46778;BME280;32536;47.128;8.746;2023-02-18T08:13:41;92633.69;;;9.04;46.38
46778;BME280;32536;47.128;8.746;2023-02-18T08:16:08;92637.09;;;9.01;46.54
46778;BME280;32536;47.128;8.746;2023-02-18T08:18:35;92637.47;;;8.99;46.98
46778;BME280;32536;47.128;8.746;2023-02-18T08:21:02;92642.06;;;8.99;46.86
46778;BME280;32536;47.128;8.746;2023-02-18T08:23:29;92645.53;;;9.03;46.68
46778;BME280;32536;47.128;8.746;2023-02-18T08:25:56;92639.78;;;9.04;47.07
46778;BME280;32536;47.128;8.746;2023-02-18T08:28:23;92644.78;;;9.06;47.07
46778;BME280;32536;47.128;8.746;2023-02-18T08:30:52;92647.84;;;9.08;47.60
46778;BME280;32536;47.128;8.746;2023-02-18T08:33:21;92641.41;;;9.12;47.40
46778;BME280;32536;47.128;8.746;2023-02-18T08:35:50;92634.97;;;9.21;47.56
46778;BME280;32536;47.128;8.746;2023-02-18T08:38:19;92637.28;;;9.22;47.56
46778;BME280;32536;47.128;8.746;2023-02-18T08:40:47;92639.25;;;9.29;47.79
46778;BME280;32536;47.128;8.746;2023-02-18T08:43:15;92642.31;;;9.35;47.12
46778;BME280;32536;47.128;8.746;2023-02-18T08:45:43;92639.69;;;9.42;47.39
46778;BME280;32536;47.128;8.746;2023-02-18T08:48:12;92646.63;;;9.50;47.21
46778;BME280;32536;47.128;8.746;2023-02-18T08:50:39;92635.22;;;9.60;47.33
46778;BME280;32536;47.128;8.746;2023-02-18T08:53:06;92643.69;;;9.70;47.22
46778;BME280;32536;47.128;8.746;2023-02-18T08:55:33;92638.78;;;9.75;47.20
46778;BME280;32536;47.128;8.746;2023-02-18T08:58:03;92645.66;;;9.80;47.75
46778;BME280;32536;47.128;8.746;2023-02-18T09:00:31;92646.88;;;9.90;47.22
46778;BME280;32536;47.128;8.746;2023-02-18T09:02:58;92647.28;;;9.96;47.29
46778;BME280;32536;47.128;8.746;2023-02-18T09:05:25;92642.75;;;10.03;47.81
46778;BME280;32536;47.128;8.746;2023-02-18T09:07:52;92642.38;;;10.12;47.40
46778;BME280;32536;47.128;8.746;2023-02-18T09:10:19;92637.06;;;10.23;47.60
46778;BME280;32536;47.128;8.746;2023-02-18T09:12:46;92640.56;;;10.34;47.83
46778;BME280;32536;47.128;8.746;2023-02-18T09:15:13;92641.38;;;10.49;47.97
46778;BME280;32536;47.128;8.746;2023-02-18T09:17:40;92639.13;;;10.62;47.56
46778;BME280;32536;47.128;8.746;2023-02-18T09:20:07;92628.44;;;10.69;48.43
46778;BME280;32536;47.128;8.746;2023-02-18T09:22:34;92642.59;;;10.77;48.50
46778;BME280;32536;47.128;8.746;2023-02-18T09:25:02;92630.34;;;10.80;50.05
46778;BME280;32536;47.128;8.746;2023-02-18T09:27:29;92633.78;;;10.87;49.29
46778;BME280;32536;47.128;8.746;2023-02-18T09:29:56;92627.31;;;10.96;49.16
46778;BME280;32536;47.128;8.746;2023-02-18T09:32:23;92631.53;;;11.04;49.44
46778;BME280;32536;47.128;8.746;2023-02-18T09:34:49;92621.56;;;11.15;48.85
46778;BME280;32536;47.128;8.746;2023-02-18T09:37:16;92616.59;;;11.25;48.97
46778;BME280;32536;47.128;8.746;2023-02-18T09:39:43;92620.41;;;11.31;48.98
46778;BME280;32536;47.128;8.746;2023-02-18T09:42:13;92619.63;;;11.37;49.93
46778;BME280;32536;47.128;8.746;2023-02-18T09:44:49;92616.19;;;11.44;51.68
46778;BME280;32536;47.128;8.746;2023-02-18T09:47:32;92617.72;;;11.52;49.25
46778;BME280;32536;47.128;8.746;2023-02-18T09:50:05;92610.00;;;11.62;49.68
46778;BME280;32536;47.128;8.746;2023-02-18T09:52:44;92607.72;;;11.71;49.16
46778;BME280;32536;47.128;8.746;2023-02-18T09:55:27;92608.44;;;11.75;49.75
46778;BME280;32536;47.128;8.746;2023-02-18T09:57:57;92612.25;;;11.85;49.29
46778;BME280;32536;47.128;8.746;2023-02-18T10:00:38;92617.25;;;11.90;51.38
46778;BME280;32536;47.128;8.746;2023-02-18T10:03:14;92609.97;;;11.98;50.46
46778;BME280;32536;47.128;8.746;2023-02-18T10:06:25;92609.53;;;12.07;50.38
46778;BME280;32536;47.128;8.746;2023-02-18T10:08:59;92608.38;;;12.15;49.84
46778;BME280;32536;47.128;8.746;2023-02-18T10:11:31;92621.38;;;12.20;49.04
46778;BME280;32536;47.128;8.746;2023-02-18T10:14:01;92618.69;;;12.27;49.24
46778;BME280;32536;47.128;8.746;2023-02-18T10:16:29;92608.31;;;12.29;49.26
46778;BME280;32536;47.128;8.746;2023-02-18T10:18:58;92603.28;;;12.35;49.00
46778;BME280;32536;47.128;8.746;2023-02-18T10:21:32;92601.34;;;12.39;49.18
46778;BME280;32536;47.128;8.746;2023-02-18T10:26:43;92590.56;;;12.50;48.48
46778;BME280;32536;47.128;8.746;2023-02-18T10:29:17;92595.94;;;12.50;49.63
46778;BME280;32536;47.128;8.746;2023-02-18T10:37:40;92596.63;;;12.58;48.93
46778;BME280;32536;47.128;8.746;2023-02-18T10:46:28;92597.00;;;12.63;49.02
46778;BME280;32536;47.128;8.746;2023-02-18T10:51:44;92593.91;;;12.69;49.49
46778;BME280;32536;47.128;8.746;2023-02-18T10:54:14;92592.75;;;12.66;49.08
46778;BME280;32536;47.128;8.746;2023-02-18T10:56:46;92593.50;;;12.67;50.43
46778;BME280;32536;47.128;8.746;2023-02-18T10:59:23;92584.69;;;12.70;49.10
46778;BME280;32536;47.128;8.746;2023-02-18T11:02:03;92591.59;;;12.71;49.74
46778;BME280;32536;47.128;8.746;2023-02-18T11:04:41;92585.75;;;12.79;49.08
46778;BME280;32536;47.128;8.746;2023-02-18T11:07:15;92582.66;;;12.85;49.00
46778;BME280;32536;47.128;8.746;2023-02-18T11:09:55;92581.06;;;12.91;49.30
46778;BME280;32536;47.128;8.746;2023-02-18T11:12:29;92583.69;;;12.98;49.06
46778;BME280;32536;47.128;8.746;2023-02-18T11:17:47;92580.16;;;13.08;49.02
46778;BME280;32536;47.128;8.746;2023-02-18T11:22:56;92574.63;;;13.26;49.62
46778;BME280;32536;47.128;8.746;2023-02-18T11:25:37;92569.25;;;13.26;49.20
46778;BME280;32536;47.128;8.746;2023-02-18T11:30:40;92573.00;;;13.36;48.72
46778;BME280;32536;47.128;8.746;2023-02-18T11:33:23;92568.03;;;13.38;48.68
46778;BME280;32536;47.128;8.746;2023-02-18T11:36:32;92559.53;;;13.40;48.91
46778;BME280;32536;47.128;8.746;2023-02-18T11:39:05;92566.81;;;13.47;48.51
46778;BME280;32536;47.128;8.746;2023-02-18T11:44:36;92551.72;;;13.56;48.46
46778;BME280;32536;47.128;8.746;2023-02-18T11:49:42;92555.16;;;13.57;48.57
46778;BME280;32536;47.128;8.746;2023-02-18T11:52:48;92551.66;;;13.60;48.64
46778;BME280;32536;47.128;8.746;2023-02-18T11:55:17;92550.41;;;13.68;48.33
46778;BME280;32536;47.128;8.746;2023-02-18T11:58:03;92551.97;;;13.66;48.65
46778;BME280;32536;47.128;8.746;2023-02-18T12:00:45;92548.53;;;13.65;47.49
46778;BME280;32536;47.128;8.746;2023-02-18T12:03:29;92542.44;;;13.61;48.30
46778;BME280;32536;47.128;8.746;2023-02-18T12:06:04;92546.25;;;13.64;47.91
46778;BME280;32536;47.128;8.746;2023-02-18T12:08:50;92535.88;;;13.62;47.89
46778;BME280;32536;47.128;8.746;2023-02-18T12:11:34;92531.25;;;13.63;48.50
46778;BME280;32536;47.128;8.746;2023-02-18T12:14:13;92520.78;;;13.68;48.05
46778;BME280;32536;47.128;8.746;2023-02-18T12:17:06;92516.53;;;13.74;48.14
46778;BME280;32536;47.128;8.746;2023-02-18T12:28:36;92512.50;;;13.86;48.22
46778;BME280;32536;47.128;8.746;2023-02-18T12:31:43;92492.03;;;13.92;47.60
46778;BME280;32536;47.128;8.746;2023-02-18T12:37:56;92484.28;;;13.98;47.55
46778;BME280;32536;47.128;8.746;2023-02-18T12:40:51;92473.88;;;14.00;47.48
46778;BME280;32536;47.128;8.746;2023-02-18T12:46:26;92468.41;;;14.07;47.26
46778;BME280;32536;47.128;8.746;2023-02-18T13:03:47;92453.44;;;14.57;46.61
46778;BME280;32536;47.128;8.746;2023-02-18T13:09:14;92462.59;;;14.87;46.29
46778;BME280;32536;47.128;8.746;2023-02-18T13:12:07;92455.84;;;14.99;47.11
46778;BME280;32536;47.128;8.746;2023-02-18T13:15:04;92447.63;;;15.07;46.32
46778;BME280;32536;47.128;8.746;2023-02-18T13:17:34;92442.72;;;15.21;46.81
46778;BME280;32536;47.128;8.746;2023-02-18T13:20:13;92437.22;;;15.29;44.06
46778;BME280;32536;47.128;8.746;2023-02-18T13:22:49;92432.03;;;15.38;46.16
46778;BME280;32536;47.128;8.746;2023-02-18T13:25:19;92422.19;;;15.48;46.60
46778;BME280;32536;47.128;8.746;2023-02-18T13:30:35;92414.84;;;15.68;45.51
46778;BME280;32536;47.128;8.746;2023-02-18T13:36:04;92412.72;;;15.96;46.58
46778;BME280;32536;47.128;8.746;2023-02-18T13:41:36;92403.22;;;16.08;43.98
46778;BME280;32536;47.128;8.746;2023-02-18T13:46:52;92397.50;;;16.23;41.63
46778;BME280;32536;47.128;8.746;2023-02-18T13:49:23;92391.34;;;16.39;45.82
46778;BME280;32536;47.128;8.746;2023-02-18T13:52:00;92386.84;;;16.48;45.60
46778;BME280;32536;47.128;8.746;2023-02-18T13:54:33;92378.66;;;16.52;42.62
46778;BME280;32536;47.128;8.746;2023-02-18T13:57:19;92381.19;;;16.59;41.83
46778;BME280;32536;47.128;8.746;2023-02-18T14:23:11;92382.97;;;17.12;42.83
46778;BME280;32536;47.128;8.746;2023-02-18T14:29:06;92372.81;;;17.16;41.64
46778;BME280;32536;47.128;8.746;2023-02-18T14:31:49;92374.75;;;17.16;41.89
46778;BME280;32536;47.128;8.746;2023-02-18T14:46:21;92365.91;;;17.15;41.99
46778;BME280;32536;47.128;8.746;2023-02-18T14:52:14;92368.97;;;17.01;42.50
46778;BME280;32536;47.128;8.746;2023-02-18T14:55:25;92356.28;;;16.98;42.70
46778;BME280;32536;47.128;8.746;2023-02-18T14:58:05;92360.59;;;16.95;41.87
46778;BME280;32536;47.128;8.746;2023-02-18T15:00:35;92356.88;;;16.89;43.39
46778;BME280;32536;47.128;8.746;2023-02-18T15:03:13;92353.16;;;16.83;42.16
46778;BME280;32536;47.128;8.746;2023-02-18T15:05:42;92358.59;;;16.83;43.40
46778;BME280;32536;47.128;8.746;2023-02-18T15:08:15;92357.91;;;16.78;42.89
46778;BME280;32536;47.128;8.746;2023-02-18T15:11:04;92353.34;;;16.75;40.91
46778;BME280;32536;47.128;8.746;2023-02-18T15:13:36;92352.25;;;16.73;41.79
46778;BME280;32536;47.128;8.746;2023-02-18T15:16:14;92357.00;;;16.69;42.54
46778;BME280;32536;47.128;8.746;2023-02-18T15:19:05;92360.22;;;16.63;41.97
46778;BME280;32536;47.128;8.746;2023-02-18T15:21:41;92353.03;;;16.57;43.37
46778;BME280;32536;47.128;8.746;2023-02-18T15:26:52;92354.41;;;16.48;43.89
46778;BME280;32536;47.128;8.746;2023-02-18T15:29:27;92349.00;;;16.48;43.51
46778;BME280;32536;47.128;8.746;2023-02-18T15:31:59;92351.59;;;16.52;44.04
46778;BME280;32536;47.128;8.746;2023-02-18T15:34:36;92353.97;;;16.50;43.92
46778;BME280;32536;47.128;8.746;2023-02-18T15:37:05;92352.78;;;16.51;40.43
46778;BME280;32536;47.128;8.746;2023-02-18T15:39:35;92350.09;;;16.51;43.61
46778;BME280;32536;47.128;8.746;2023-02-18T15:45:19;92353.66;;;16.48;43.75
46778;BME280;32536;47.128;8.746;2023-02-18T15:47:50;92348.34;;;16.44;43.81
46778;BME280;32536;47.128;8.746;2023-02-18T15:50:23;92342.16;;;16.44;44.22
46778;BME280;32536;47.128;8.746;2023-02-18T15:53:08;92340.63;;;16.43;43.86
46778;BME280;32536;47.128;8.746;2023-02-18T15:55:41;92347.91;;;16.46;44.01
46778;BME280;32536;47.128;8.746;2023-02-18T15:58:12;92351.78;;;16.45;43.23
46778;BME280;32536;47.128;8.746;2023-02-18T16:00:56;92343.09;;;16.37;42.70
46778;BME280;32536;47.128;8.746;2023-02-18T16:03:30;92352.03;;;16.34;44.07
46778;BME280;32536;47.128;8.746;2023-02-18T16:06:23;92348.66;;;16.30;43.46
46778;BME280;32536;47.128;8.746;2023-02-18T16:11:32;92351.03;;;16.28;43.92
46778;BME280;32536;47.128;8.746;2023-02-18T16:14:06;92356.09;;;16.26;44.31
46778;BME280;32536;47.128;8.746;2023-02-18T16:19:58;92353.22;;;16.16;44.17